sensor_id;sensor_type;location;lat;lon;timestamp;P1;durP1;ratioP1;P2;durP2;ratioP2
72388;SDS011;60566;48.062;9.930;2022-10-31T00:02:01;27.67;;;12.93;;
72388;SDS011;60566;48.062;9.930;2022-10-31T00:04:27;27.30;;;12.43;;
72388;SDS011;60566;48.062;9.930;2022-10-31T00:06:52;31.83;;;13.52;;
72388;SDS011;60566;48.062;9.930;2022-10-31T00:09:18;25.15;;;12.73;;
72388;SDS011;60566;48.062;9.930;2022-10-31T00:11:43;29.67;;;12.75;;
72388;SDS011;60566;48.062;9.930;2022-10-31T00:14:10;30.42;;;13.35;;
72388;SDS011;60566;48.062;9.930;2022-10-31T00:16:35;31.05;;;13.85;;
72388;SDS011;60566;48.062;9.930;2022-10-31T00:19:02;25.63;;;12.32;;
72388;SDS011;60566;48.062;9.930;2022-10-31T00:21:28;26.73;;;13.15;;
72388;SDS011;60566;48.062;9.930;2022-10-31T00:23:54;23.67;;;12.13;;
72388;SDS011;60566;48.062;9.930;2022-10-31T00:26:20;26.17;;;12.05;;
72388;SDS011;60566;48.062;9.930;2022-10-31T00:28:45;25.30;;;11.70;;
72388;SDS011;60566;48.062;9.930;2022-10-31T00:31:13;27.17;;;11.40;;
72388;SDS011;60566;48.062;9.930;2022-10-31T00:33:38;29.77;;;12.07;;
72388;SDS011;60566;48.062;9.930;2022-10-31T00:36:06;25.15;;;12.40;;
72388;SDS011;60566;48.062;9.930;2022-10-31T00:38:32;23.63;;;12.00;;
72388;SDS011;60566;48.062;9.930;2022-10-31T00:40:57;24.58;;;13.57;;
72388;SDS011;60566;48.062;9.930;2022-10-31T00:43:23;25.15;;;11.88;;
72388;SDS011;60566;48.062;9.930;2022-10-31T00:45:49;21.80;;;12.10;;
72388;SDS011;60566;48.062;9.930;2022-10-31T00:48:16;24.08;;;10.85;;
72388;SDS011;60566;48.062;9.930;2022-10-31T00:50:41;26.90;;;12.68;;
72388;SDS011;60566;48.062;9.930;2022-10-31T00:53:07;23.52;;;11.48;;
72388;SDS011;60566;48.062;9.930;2022-10-31T00:55:33;23.67;;;12.77;;
72388;SDS011;60566;48.062;9.930;2022-10-31T00:57:58;25.15;;;12.15;;
72388;SDS011;60566;48.062;9.930;2022-10-31T01:00:23;24.17;;;11.90;;
72388;SDS011;60566;48.062;9.930;2022-10-31T01:02:49;21.15;;;11.93;;
72388;SDS011;60566;48.062;9.930;2022-10-31T01:05:16;23.23;;;11.95;;
72388;SDS011;60566;48.062;9.930;2022-10-31T01:07:42;23.08;;;11.65;;
72388;SDS011;60566;48.062;9.930;2022-10-31T01:10:07;21.13;;;11.55;;
72388;SDS011;60566;48.062;9.930;2022-10-31T01:12:35;25.52;;;12.15;;
72388;SDS011;60566;48.062;9.930;2022-10-31T01:15:01;24.23;;;13.35;;
72388;SDS011;60566;48.062;9.930;2022-10-31T01:17:27;24.38;;;12.75;;
72388;SDS011;60566;48.062;9.930;2022-10-31T01:19:52;22.75;;;11.20;;
72388;SDS011;60566;48.062;9.930;2022-10-31T01:22:19;25.27;;;12.13;;
72388;SDS011;60566;48.062;9.930;2022-10-31T01:24:44;25.40;;;11.60;;
72388;SDS011;60566;48.062;9.930;2022-10-31T01:27:09;19.33;;;10.13;;
72388;SDS011;60566;48.062;9.930;2022-10-31T01:29:35;25.00;;;11.45;;
72388;SDS011;60566;48.062;9.930;2022-10-31T01:32:01;24.40;;;11.73;;
72388;SDS011;60566;48.062;9.930;2022-10-31T01:34:26;26.88;;;11.77;;
72388;SDS011;60566;48.062;9.930;2022-10-31T01:36:52;18.90;;;11.02;;
72388;SDS011;60566;48.062;9.930;2022-10-31T01:39:18;20.48;;;11.02;;
72388;SDS011;60566;48.062;9.930;2022-10-31T01:41:45;22.92;;;11.52;;
72388;SDS011;60566;48.062;9.930;2022-10-31T01:47:15;30.27;;;12.05;;
72388;SDS011;60566;48.062;9.930;2022-10-31T01:49:43;25.65;;;12.07;;
72388;SDS011;60566;48.062;9.930;2022-10-31T01:52:12;24.20;;;11.27;;
72388;SDS011;60566;48.062;9.930;2022-10-31T01:54:43;32.10;;;12.00;;
72388;SDS011;60566;48.062;9.930;2022-10-31T01:57:11;23.08;;;12.88;;
72388;SDS011;60566;48.062;9.930;2022-10-31T01:59:39;22.73;;;10.50;;
72388;SDS011;60566;48.062;9.930;2022-10-31T02:02:07;23.13;;;11.18;;
72388;SDS011;60566;48.062;9.930;2022-10-31T02:04:33;24.75;;;11.05;;
72388;SDS011;60566;48.062;9.930;2022-10-31T02:07:00;24.90;;;13.25;;
72388;SDS011;60566;48.062;9.930;2022-10-31T02:09:28;26.25;;;12.13;;
72388;SDS011;60566;48.062;9.930;2022-10-31T02:11:56;35.63;;;13.32;;
72388;SDS011;60566;48.062;9.930;2022-10-31T02:14:22;22.35;;;12.07;;
72388;SDS011;60566;48.062;9.930;2022-10-31T02:16:49;26.52;;;13.20;;
72388;SDS011;60566;48.062;9.930;2022-10-31T02:19:16;29.52;;;12.70;;
72388;SDS011;60566;48.062;9.930;2022-10-31T02:21:44;21.90;;;12.45;;
72388;SDS011;60566;48.062;9.930;2022-10-31T02:24:28;25.33;;;12.40;;
72388;SDS011;60566;48.062;9.930;2022-10-31T02:29:55;26.08;;;13.18;;
72388;SDS011;60566;48.062;9.930;2022-10-31T02:32:31;24.63;;;13.18;;
72388;SDS011;60566;48.062;9.930;2022-10-31T02:35:05;21.92;;;11.95;;
72388;SDS011;60566;48.062;9.930;2022-10-31T02:37:37;24.20;;;11.88;;
72388;SDS011;60566;48.062;9.930;2022-10-31T02:40:09;25.85;;;11.40;;
72388;SDS011;60566;48.062;9.930;2022-10-31T02:42:39;23.92;;;11.65;;
72388;SDS011;60566;48.062;9.930;2022-10-31T02:45:09;33.92;;;12.70;;
72388;SDS011;60566;48.062;9.930;2022-10-31T02:47:39;24.95;;;12.90;;
72388;SDS011;60566;48.062;9.930;2022-10-31T02:52:33;27.63;;;12.10;;
72388;SDS011;60566;48.062;9.930;2022-10-31T02:54:58;26.30;;;12.88;;
72388;SDS011;60566;48.062;9.930;2022-10-31T02:57:33;27.50;;;12.18;;
72388;SDS011;60566;48.062;9.930;2022-10-31T03:00:00;26.75;;;11.23;;
72388;SDS011;60566;48.062;9.930;2022-10-31T03:02:34;25.02;;;13.00;;
72388;SDS011;60566;48.062;9.930;2022-10-31T03:05:21;21.83;;;12.00;;
72388;SDS011;60566;48.062;9.930;2022-10-31T03:07:51;29.58;;;12.85;;
72388;SDS011;60566;48.062;9.930;2022-10-31T03:10:20;24.00;;;10.57;;
72388;SDS011;60566;48.062;9.930;2022-10-31T03:12:51;20.98;;;10.93;;
72388;SDS011;60566;48.062;9.930;2022-10-31T03:15:22;26.15;;;12.35;;
72388;SDS011;60566;48.062;9.930;2022-10-31T03:17:54;24.80;;;11.65;;
72388;SDS011;60566;48.062;9.930;2022-10-31T03:20:22;22.70;;;11.27;;
72388;SDS011;60566;48.062;9.930;2022-10-31T03:22:49;23.42;;;11.90;;
72388;SDS011;60566;48.062;9.930;2022-10-31T03:25:16;21.20;;;12.00;;
72388;SDS011;60566;48.062;9.930;2022-10-31T03:27:42;26.23;;;11.30;;
72388;SDS011;60566;48.062;9.930;2022-10-31T03:30:08;22.75;;;10.50;;
72388;SDS011;60566;48.062;9.930;2022-10-31T03:32:34;25.95;;;12.52;;
72388;SDS011;60566;48.062;9.930;2022-10-31T03:35:04;26.65;;;11.30;;
72388;SDS011;60566;48.062;9.930;2022-10-31T03:37:31;22.40;;;10.90;;
72388;SDS011;60566;48.062;9.930;2022-10-31T03:39:58;31.75;;;12.55;;
72388;SDS011;60566;48.062;9.930;2022-10-31T03:42:25;21.55;;;11.50;;
72388;SDS011;60566;48.062;9.930;2022-10-31T03:44:53;22.17;;;11.27;;
72388;SDS011;60566;48.062;9.930;2022-10-31T03:47:21;22.73;;;11.32;;
72388;SDS011;60566;48.062;9.930;2022-10-31T03:49:50;24.90;;;12.18;;
72388;SDS011;60566;48.062;9.930;2022-10-31T03:52:19;23.20;;;10.93;;
72388;SDS011;60566;48.062;9.930;2022-10-31T03:54:51;24.83;;;11.13;;
72388;SDS011;60566;48.062;9.930;2022-10-31T03:57:19;28.00;;;13.25;;
72388;SDS011;60566;48.062;9.930;2022-10-31T03:59:50;23.38;;;11.82;;
72388;SDS011;60566;48.062;9.930;2022-10-31T04:02:17;24.48;;;11.00;;
72388;SDS011;60566;48.062;9.930;2022-10-31T04:04:45;24.65;;;11.38;;
72388;SDS011;60566;48.062;9.930;2022-10-31T04:07:12;33.58;;;12.35;;
72388;SDS011;60566;48.062;9.930;2022-10-31T04:09:40;24.17;;;11.27;;
72388;SDS011;60566;48.062;9.930;2022-10-31T04:12:08;25.48;;;11.38;;
72388;SDS011;60566;48.062;9.930;2022-10-31T04:14:36;29.70;;;11.73;;
72388;SDS011;60566;48.062;9.930;2022-10-31T04:17:03;23.85;;;12.32;;
72388;SDS011;60566;48.062;9.930;2022-10-31T04:19:31;22.23;;;12.30;;
72388;SDS011;60566;48.062;9.930;2022-10-31T04:21:57;20.83;;;11.35;;
72388;SDS011;60566;48.062;9.930;2022-10-31T04:24:22;26.80;;;12.55;;
72388;SDS011;60566;48.062;9.930;2022-10-31T04:26:49;28.10;;;11.65;;
72388;SDS011;60566;48.062;9.930;2022-10-31T04:29:15;23.23;;;11.38;;
72388;SDS011;60566;48.062;9.930;2022-10-31T04:31:40;18.75;;;10.05;;
72388;SDS011;60566;48.062;9.930;2022-10-31T04:34:06;24.10;;;10.93;;
72388;SDS011;60566;48.062;9.930;2022-10-31T04:36:31;25.95;;;11.52;;
72388;SDS011;60566;48.062;9.930;2022-10-31T04:38:56;24.15;;;12.50;;
72388;SDS011;60566;48.062;9.930;2022-10-31T04:41:22;34.17;;;13.52;;
72388;SDS011;60566;48.062;9.930;2022-10-31T04:43:49;22.50;;;12.55;;
72388;SDS011;60566;48.062;9.930;2022-10-31T04:46:14;30.20;;;12.38;;
72388;SDS011;60566;48.062;9.930;2022-10-31T04:48:40;28.92;;;12.50;;
72388;SDS011;60566;48.062;9.930;2022-10-31T04:51:05;23.35;;;12.45;;
72388;SDS011;60566;48.062;9.930;2022-10-31T04:53:30;22.77;;;13.70;;
72388;SDS011;60566;48.062;9.930;2022-10-31T04:55:57;25.42;;;12.93;;
72388;SDS011;60566;48.062;9.930;2022-10-31T04:58:23;33.88;;;13.23;;
72388;SDS011;60566;48.062;9.930;2022-10-31T05:00:52;40.05;;;18.23;;
72388;SDS011;60566;48.062;9.930;2022-10-31T05:03:17;43.08;;;20.35;;
72388;SDS011;60566;48.062;9.930;2022-10-31T05:05:43;47.22;;;19.65;;
72388;SDS011;60566;48.062;9.930;2022-10-31T05:08:08;26.40;;;12.93;;
72388;SDS011;60566;48.062;9.930;2022-10-31T05:10:34;29.00;;;13.55;;
72388;SDS011;60566;48.062;9.930;2022-10-31T05:13:00;29.08;;;14.10;;
72388;SDS011;60566;48.062;9.930;2022-10-31T05:15:26;24.58;;;13.50;;
72388;SDS011;60566;48.062;9.930;2022-10-31T05:17:54;27.65;;;11.93;;
72388;SDS011;60566;48.062;9.930;2022-10-31T05:20:20;21.52;;;11.93;;
72388;SDS011;60566;48.062;9.930;2022-10-31T05:22:47;26.38;;;12.82;;
72388;SDS011;60566;48.062;9.930;2022-10-31T05:25:14;31.23;;;12.98;;
72388;SDS011;60566;48.062;9.930;2022-10-31T05:27:40;22.52;;;12.23;;
72388;SDS011;60566;48.062;9.930;2022-10-31T05:30:05;22.63;;;11.02;;
72388;SDS011;60566;48.062;9.930;2022-10-31T05:32:36;29.73;;;12.13;;
72388;SDS011;60566;48.062;9.930;2022-10-31T05:35:03;29.35;;;14.32;;
72388;SDS011;60566;48.062;9.930;2022-10-31T05:37:29;26.90;;;13.57;;
72388;SDS011;60566;48.062;9.930;2022-10-31T05:39:55;26.55;;;12.00;;
72388;SDS011;60566;48.062;9.930;2022-10-31T05:42:20;32.75;;;11.95;;
72388;SDS011;60566;48.062;9.930;2022-10-31T05:44:46;23.85;;;11.88;;
72388;SDS011;60566;48.062;9.930;2022-10-31T05:47:11;21.95;;;11.05;;
72388;SDS011;60566;48.062;9.930;2022-10-31T05:49:37;19.52;;;11.00;;
72388;SDS011;60566;48.062;9.930;2022-10-31T05:52:04;23.67;;;13.30;;
72388;SDS011;60566;48.062;9.930;2022-10-31T05:54:29;25.90;;;13.73;;
72388;SDS011;60566;48.062;9.930;2022-10-31T05:56:54;25.48;;;12.85;;
72388;SDS011;60566;48.062;9.930;2022-10-31T05:59:20;24.27;;;12.32;;
72388;SDS011;60566;48.062;9.930;2022-10-31T06:01:45;28.17;;;11.88;;
72388;SDS011;60566;48.062;9.930;2022-10-31T06:04:11;24.40;;;12.15;;
72388;SDS011;60566;48.062;9.930;2022-10-31T06:06:36;24.90;;;11.82;;
72388;SDS011;60566;48.062;9.930;2022-10-31T06:09:03;24.08;;;12.25;;
72388;SDS011;60566;48.062;9.930;2022-10-31T06:11:28;22.13;;;11.45;;
72388;SDS011;60566;48.062;9.930;2022-10-31T06:13:53;28.83;;;14.25;;
72388;SDS011;60566;48.062;9.930;2022-10-31T06:16:19;24.60;;;13.48;;
72388;SDS011;60566;48.062;9.930;2022-10-31T06:18:45;22.88;;;12.57;;
72388;SDS011;60566;48.062;9.930;2022-10-31T06:21:10;26.83;;;14.18;;
72388;SDS011;60566;48.062;9.930;2022-10-31T06:23:35;24.02;;;14.15;;
72388;SDS011;60566;48.062;9.930;2022-10-31T06:26:02;30.25;;;12.85;;
72388;SDS011;60566;48.062;9.930;2022-10-31T06:28:28;31.00;;;14.98;;
72388;SDS011;60566;48.062;9.930;2022-10-31T06:30:54;28.88;;;11.75;;
72388;SDS011;60566;48.062;9.930;2022-10-31T06:33:19;27.83;;;13.15;;
72388;SDS011;60566;48.062;9.930;2022-10-31T06:35:45;28.45;;;12.82;;
72388;SDS011;60566;48.062;9.930;2022-10-31T06:38:10;22.50;;;13.52;;
72388;SDS011;60566;48.062;9.930;2022-10-31T06:40:36;24.35;;;13.48;;
72388;SDS011;60566;48.062;9.930;2022-10-31T06:43:02;24.63;;;12.63;;
72388;SDS011;60566;48.062;9.930;2022-10-31T06:45:28;24.50;;;11.93;;
72388;SDS011;60566;48.062;9.930;2022-10-31T06:47:53;27.90;;;13.10;;
72388;SDS011;60566;48.062;9.930;2022-10-31T06:50:19;26.67;;;13.35;;
72388;SDS011;60566;48.062;9.930;2022-10-31T06:52:49;27.63;;;13.68;;
72388;SDS011;60566;48.062;9.930;2022-10-31T06:55:15;28.27;;;13.80;;
72388;SDS011;60566;48.062;9.930;2022-10-31T06:57:40;26.30;;;13.20;;
72388;SDS011;60566;48.062;9.930;2022-10-31T07:00:08;25.75;;;13.20;;
72388;SDS011;60566;48.062;9.930;2022-10-31T07:02:34;32.50;;;15.00;;
72388;SDS011;60566;48.062;9.930;2022-10-31T07:05:01;35.22;;;15.27;;
72388;SDS011;60566;48.062;9.930;2022-10-31T07:07:26;30.00;;;14.38;;
72388;SDS011;60566;48.062;9.930;2022-10-31T07:09:51;34.22;;;15.77;;
72388;SDS011;60566;48.062;9.930;2022-10-31T07:12:17;39.10;;;17.38;;
72388;SDS011;60566;48.062;9.930;2022-10-31T07:14:42;23.40;;;12.73;;
72388;SDS011;60566;48.062;9.930;2022-10-31T07:17:09;27.48;;;15.20;;
72388;SDS011;60566;48.062;9.930;2022-10-31T07:19:34;35.60;;;13.95;;
72388;SDS011;60566;48.062;9.930;2022-10-31T07:22:00;25.55;;;12.98;;
72388;SDS011;60566;48.062;9.930;2022-10-31T07:24:25;30.83;;;15.05;;
72388;SDS011;60566;48.062;9.930;2022-10-31T07:26:51;27.98;;;14.68;;
72388;SDS011;60566;48.062;9.930;2022-10-31T07:29:16;27.10;;;14.63;;
72388;SDS011;60566;48.062;9.930;2022-10-31T07:31:41;26.65;;;12.65;;
72388;SDS011;60566;48.062;9.930;2022-10-31T07:34:08;23.83;;;11.52;;
72388;SDS011;60566;48.062;9.930;2022-10-31T07:36:33;23.70;;;11.07;;
72388;SDS011;60566;48.062;9.930;2022-10-31T07:38:59;20.45;;;10.73;;
72388;SDS011;60566;48.062;9.930;2022-10-31T07:41:24;20.73;;;11.15;;
72388;SDS011;60566;48.062;9.930;2022-10-31T07:43:49;21.45;;;10.85;;
72388;SDS011;60566;48.062;9.930;2022-10-31T07:46:15;21.23;;;11.93;;
72388;SDS011;60566;48.062;9.930;2022-10-31T07:48:40;29.15;;;12.50;;
72388;SDS011;60566;48.062;9.930;2022-10-31T07:51:07;26.85;;;11.48;;
72388;SDS011;60566;48.062;9.930;2022-10-31T07:53:32;21.73;;;12.13;;
72388;SDS011;60566;48.062;9.930;2022-10-31T07:55:58;23.63;;;12.20;;
72388;SDS011;60566;48.062;9.930;2022-10-31T07:58:23;23.27;;;11.25;;
72388;SDS011;60566;48.062;9.930;2022-10-31T08:00:49;28.35;;;13.27;;
72388;SDS011;60566;48.062;9.930;2022-10-31T08:03:15;23.92;;;13.20;;
72388;SDS011;60566;48.062;9.930;2022-10-31T08:05:42;25.77;;;13.45;;
72388;SDS011;60566;48.062;9.930;2022-10-31T08:08:09;28.00;;;13.23;;
72388;SDS011;60566;48.062;9.930;2022-10-31T08:10:34;29.73;;;13.18;;
72388;SDS011;60566;48.062;9.930;2022-10-31T08:13:00;28.95;;;13.45;;
72388;SDS011;60566;48.062;9.930;2022-10-31T08:15:27;32.78;;;13.07;;
72388;SDS011;60566;48.062;9.930;2022-10-31T08:17:52;25.95;;;12.90;;
72388;SDS011;60566;48.062;9.930;2022-10-31T08:20:18;30.27;;;13.85;;
72388;SDS011;60566;48.062;9.930;2022-10-31T08:22:52;25.25;;;13.38;;
72388;SDS011;60566;48.062;9.930;2022-10-31T08:25:19;27.35;;;12.75;;
72388;SDS011;60566;48.062;9.930;2022-10-31T08:27:48;33.65;;;14.82;;
72388;SDS011;60566;48.062;9.930;2022-10-31T08:30:13;29.20;;;13.88;;
72388;SDS011;60566;48.062;9.930;2022-10-31T08:32:39;30.08;;;13.57;;
72388;SDS011;60566;48.062;9.930;2022-10-31T08:35:04;30.17;;;13.75;;
72388;SDS011;60566;48.062;9.930;2022-10-31T08:37:30;28.73;;;14.15;;
72388;SDS011;60566;48.062;9.930;2022-10-31T08:39:55;30.27;;;14.45;;
72388;SDS011;60566;48.062;9.930;2022-10-31T08:42:22;27.20;;;14.55;;
72388;SDS011;60566;48.062;9.930;2022-10-31T08:44:48;27.17;;;13.60;;
72388;SDS011;60566;48.062;9.930;2022-10-31T08:47:13;31.15;;;14.88;;
72388;SDS011;60566;48.062;9.930;2022-10-31T08:49:38;29.58;;;14.02;;
72388;SDS011;60566;48.062;9.930;2022-10-31T08:52:04;32.47;;;14.85;;
72388;SDS011;60566;48.062;9.930;2022-10-31T08:54:29;29.88;;;14.25;;
72388;SDS011;60566;48.062;9.930;2022-10-31T08:56:55;30.67;;;14.52;;
72388;SDS011;60566;48.062;9.930;2022-10-31T08:59:22;27.52;;;14.13;;
72388;SDS011;60566;48.062;9.930;2022-10-31T09:01:47;29.42;;;14.10;;
72388;SDS011;60566;48.062;9.930;2022-10-31T09:04:12;32.47;;;14.82;;
72388;SDS011;60566;48.062;9.930;2022-10-31T09:06:38;30.73;;;15.27;;
72388;SDS011;60566;48.062;9.930;2022-10-31T09:09:03;30.30;;;13.80;;
72388;SDS011;60566;48.062;9.930;2022-10-31T09:11:29;24.30;;;14.90;;
72388;SDS011;60566;48.062;9.930;2022-10-31T09:13:55;38.65;;;15.73;;
72388;SDS011;60566;48.062;9.930;2022-10-31T09:16:22;27.77;;;14.60;;
72388;SDS011;60566;48.062;9.930;2022-10-31T09:18:47;33.85;;;14.70;;
72388;SDS011;60566;48.062;9.930;2022-10-31T09:21:13;28.52;;;13.27;;
72388;SDS011;60566;48.062;9.930;2022-10-31T09:23:38;27.20;;;15.68;;
72388;SDS011;60566;48.062;9.930;2022-10-31T09:26:03;35.33;;;16.60;;
72388;SDS011;60566;48.062;9.930;2022-10-31T09:33:43;33.03;;;15.25;;
72388;SDS011;60566;48.062;9.930;2022-10-31T09:36:18;32.90;;;15.15;;
72388;SDS011;60566;48.062;9.930;2022-10-31T09:38:48;35.50;;;16.80;;
72388;SDS011;60566;48.062;9.930;2022-10-31T09:41:16;33.65;;;16.77;;
72388;SDS011;60566;48.062;9.930;2022-10-31T09:43:49;33.75;;;17.65;;
72388;SDS011;60566;48.062;9.930;2022-10-31T09:46:22;38.10;;;17.48;;
72388;SDS011;60566;48.062;9.930;2022-10-31T09:48:59;35.53;;;17.83;;
72388;SDS011;60566;48.062;9.930;2022-10-31T09:51:39;35.33;;;15.85;;
72388;SDS011;60566;48.062;9.930;2022-10-31T09:54:12;30.00;;;14.60;;
72388;SDS011;60566;48.062;9.930;2022-10-31T09:56:51;34.30;;;17.35;;
72388;SDS011;60566;48.062;9.930;2022-10-31T09:59:24;39.17;;;16.45;;
72388;SDS011;60566;48.062;9.930;2022-10-31T10:01:53;35.75;;;15.18;;
72388;SDS011;60566;48.062;9.930;2022-10-31T10:04:36;28.40;;;15.70;;
72388;SDS011;60566;48.062;9.930;2022-10-31T10:07:06;32.10;;;15.23;;
72388;SDS011;60566;48.062;9.930;2022-10-31T10:09:36;33.90;;;15.18;;
72388;SDS011;60566;48.062;9.930;2022-10-31T10:12:09;33.58;;;14.85;;
72388;SDS011;60566;48.062;9.930;2022-10-31T10:14:51;29.85;;;14.55;;
72388;SDS011;60566;48.062;9.930;2022-10-31T10:17:32;25.35;;;12.85;;
72388;SDS011;60566;48.062;9.930;2022-10-31T10:20:12;24.98;;;14.98;;
72388;SDS011;60566;48.062;9.930;2022-10-31T10:22:48;33.72;;;14.52;;
72388;SDS011;60566;48.062;9.930;2022-10-31T10:25:19;37.08;;;16.63;;
72388;SDS011;60566;48.062;9.930;2022-10-31T10:28:02;32.45;;;15.10;;
72388;SDS011;60566;48.062;9.930;2022-10-31T10:30:35;29.25;;;15.77;;
72388;SDS011;60566;48.062;9.930;2022-10-31T10:33:18;32.80;;;15.60;;
72388;SDS011;60566;48.062;9.930;2022-10-31T10:35:50;31.63;;;13.88;;
72388;SDS011;60566;48.062;9.930;2022-10-31T10:38:22;34.10;;;14.48;;
72388;SDS011;60566;48.062;9.930;2022-10-31T10:40:50;30.48;;;14.02;;
72388;SDS011;60566;48.062;9.930;2022-10-31T10:43:20;27.13;;;13.43;;
72388;SDS011;60566;48.062;9.930;2022-10-31T10:45:56;24.02;;;14.02;;
72388;SDS011;60566;48.062;9.930;2022-10-31T10:48:30;26.42;;;13.15;;
72388;SDS011;60566;48.062;9.930;2022-10-31T10:51:01;24.13;;;13.02;;
72388;SDS011;60566;48.062;9.930;2022-10-31T10:53:34;26.50;;;13.57;;
72388;SDS011;60566;48.062;9.930;2022-10-31T10:56:08;24.70;;;13.48;;
72388;SDS011;60566;48.062;9.930;2022-10-31T10:58:37;24.73;;;13.10;;
72388;SDS011;60566;48.062;9.930;2022-10-31T11:01:08;22.77;;;11.43;;
72388;SDS011;60566;48.062;9.930;2022-10-31T11:03:35;24.33;;;11.98;;
72388;SDS011;60566;48.062;9.930;2022-10-31T11:06:02;18.45;;;11.05;;
72388;SDS011;60566;48.062;9.930;2022-10-31T11:08:29;22.42;;;12.40;;
72388;SDS011;60566;48.062;9.930;2022-10-31T11:10:58;19.45;;;10.95;;
72388;SDS011;60566;48.062;9.930;2022-10-31T11:13:24;20.83;;;10.57;;
72388;SDS011;60566;48.062;9.930;2022-10-31T11:15:51;18.30;;;10.90;;
72388;SDS011;60566;48.062;9.930;2022-10-31T11:18:20;22.05;;;10.90;;
72388;SDS011;60566;48.062;9.930;2022-10-31T11:20:50;24.42;;;11.60;;
72388;SDS011;60566;48.062;9.930;2022-10-31T11:23:22;21.55;;;10.20;;
72388;SDS011;60566;48.062;9.930;2022-10-31T11:25:54;23.40;;;9.65;;
72388;SDS011;60566;48.062;9.930;2022-10-31T11:28:21;17.15;;;9.23;;
72388;SDS011;60566;48.062;9.930;2022-10-31T11:30:47;19.75;;;10.00;;
72388;SDS011;60566;48.062;9.930;2022-10-31T11:33:17;22.27;;;11.63;;
72388;SDS011;60566;48.062;9.930;2022-10-31T11:35:44;18.27;;;10.93;;
72388;SDS011;60566;48.062;9.930;2022-10-31T11:38:12;25.10;;;9.85;;
72388;SDS011;60566;48.062;9.930;2022-10-31T11:40:44;22.05;;;10.35;;
72388;SDS011;60566;48.062;9.930;2022-10-31T11:43:17;19.70;;;9.70;;
72388;SDS011;60566;48.062;9.930;2022-10-31T11:45:42;15.27;;;8.45;;
72388;SDS011;60566;48.062;9.930;2022-10-31T11:48:15;18.95;;;8.73;;
72388;SDS011;60566;48.062;9.930;2022-10-31T11:50:42;18.27;;;9.38;;
72388;SDS011;60566;48.062;9.930;2022-10-31T11:53:11;17.85;;;8.60;;
72388;SDS011;60566;48.062;9.930;2022-10-31T11:55:38;17.30;;;7.82;;
72388;SDS011;60566;48.062;9.930;2022-10-31T11:58:18;18.08;;;8.70;;
72388;SDS011;60566;48.062;9.930;2022-10-31T12:00:48;23.75;;;8.50;;
72388;SDS011;60566;48.062;9.930;2022-10-31T12:03:15;15.90;;;8.18;;
72388;SDS011;60566;48.062;9.930;2022-10-31T12:05:51;17.65;;;7.28;;
72388;SDS011;60566;48.062;9.930;2022-10-31T12:08:19;18.23;;;7.35;;
72388;SDS011;60566;48.062;9.930;2022-10-31T12:10:46;18.58;;;7.38;;
72388;SDS011;60566;48.062;9.930;2022-10-31T12:13:21;13.05;;;6.95;;
72388;SDS011;60566;48.062;9.930;2022-10-31T12:15:57;20.85;;;6.20;;
72388;SDS011;60566;48.062;9.930;2022-10-31T12:21:19;17.23;;;6.57;;
72388;SDS011;60566;48.062;9.930;2022-10-31T12:23:53;13.40;;;6.32;;
72388;SDS011;60566;48.062;9.930;2022-10-31T12:29:02;13.55;;;6.35;;
72388;SDS011;60566;48.062;9.930;2022-10-31T12:31:40;11.75;;;5.10;;
72388;SDS011;60566;48.062;9.930;2022-10-31T12:34:19;13.27;;;5.97;;
72388;SDS011;60566;48.062;9.930;2022-10-31T12:36:57;21.25;;;7.07;;
72388;SDS011;60566;48.062;9.930;2022-10-31T12:39:29;14.40;;;6.32;;
72388;SDS011;60566;48.062;9.930;2022-10-31T12:42:02;16.55;;;8.75;;
72388;SDS011;60566;48.062;9.930;2022-10-31T12:50:12;18.42;;;10.38;;
72388;SDS011;60566;48.062;9.930;2022-10-31T12:52:48;20.83;;;9.68;;
72388;SDS011;60566;48.062;9.930;2022-10-31T12:55:25;19.25;;;9.80;;
72388;SDS011;60566;48.062;9.930;2022-10-31T12:57:58;16.58;;;9.70;;
72388;SDS011;60566;48.062;9.930;2022-10-31T13:00:27;20.33;;;10.60;;
72388;SDS011;60566;48.062;9.930;2022-10-31T13:02:55;21.10;;;9.77;;
72388;SDS011;60566;48.062;9.930;2022-10-31T13:05:25;20.08;;;10.77;;
72388;SDS011;60566;48.062;9.930;2022-10-31T13:07:55;36.47;;;10.82;;
72388;SDS011;60566;48.062;9.930;2022-10-31T13:10:24;16.75;;;9.77;;
72388;SDS011;60566;48.062;9.930;2022-10-31T13:12:53;22.00;;;11.07;;
72388;SDS011;60566;48.062;9.930;2022-10-31T13:15:22;22.23;;;9.45;;
72388;SDS011;60566;48.062;9.930;2022-10-31T13:17:50;17.52;;;11.23;;
72388;SDS011;60566;48.062;9.930;2022-10-31T13:20:20;22.98;;;10.43;;
72388;SDS011;60566;48.062;9.930;2022-10-31T13:22:48;16.88;;;9.55;;
72388;SDS011;60566;48.062;9.930;2022-10-31T13:27:42;20.52;;;9.43;;
72388;SDS011;60566;48.062;9.930;2022-10-31T13:30:12;15.30;;;7.15;;
72388;SDS011;60566;48.062;9.930;2022-10-31T13:32:41;14.85;;;6.78;;
72388;SDS011;60566;48.062;9.930;2022-10-31T13:35:12;13.02;;;6.38;;
72388;SDS011;60566;48.062;9.930;2022-10-31T13:37:41;25.23;;;6.65;;
72388;SDS011;60566;48.062;9.930;2022-10-31T13:40:12;13.70;;;5.35;;
72388;SDS011;60566;48.062;9.930;2022-10-31T13:42:45;17.95;;;6.30;;
72388;SDS011;60566;48.062;9.930;2022-10-31T13:45:17;17.77;;;6.82;;
72388;SDS011;60566;48.062;9.930;2022-10-31T13:47:54;12.82;;;6.50;;
72388;SDS011;60566;48.062;9.930;2022-10-31T13:50:22;17.27;;;6.70;;
72388;SDS011;60566;48.062;9.930;2022-10-31T13:52:49;14.85;;;6.03;;
72388;SDS011;60566;48.062;9.930;2022-10-31T13:58:03;15.82;;;6.93;;
72388;SDS011;60566;48.062;9.930;2022-10-31T14:00:29;17.27;;;7.13;;
72388;SDS011;60566;48.062;9.930;2022-10-31T14:02:55;13.30;;;6.10;;
72388;SDS011;60566;48.062;9.930;2022-10-31T14:05:23;16.15;;;5.60;;
72388;SDS011;60566;48.062;9.930;2022-10-31T14:07:51;15.10;;;5.78;;
72388;SDS011;60566;48.062;9.930;2022-10-31T14:10:20;17.48;;;6.72;;
72388;SDS011;60566;48.062;9.930;2022-10-31T14:12:47;18.02;;;5.85;;
72388;SDS011;60566;48.062;9.930;2022-10-31T14:15:14;12.13;;;5.47;;
72388;SDS011;60566;48.062;9.930;2022-10-31T14:17:45;13.57;;;5.85;;
72388;SDS011;60566;48.062;9.930;2022-10-31T14:23:09;17.13;;;6.07;;
72388;SDS011;60566;48.062;9.930;2022-10-31T14:56:47;13.55;;;6.75;;
72388;SDS011;60566;48.062;9.930;2022-10-31T14:59:15;12.50;;;6.25;;
72388;SDS011;60566;48.062;9.930;2022-10-31T15:01:49;17.60;;;7.25;;
72388;SDS011;60566;48.062;9.930;2022-10-31T15:04:20;14.23;;;6.55;;
72388;SDS011;60566;48.062;9.930;2022-10-31T15:06:47;18.10;;;6.68;;
72388;SDS011;60566;48.062;9.930;2022-10-31T15:09:21;22.63;;;7.55;;
72388;SDS011;60566;48.062;9.930;2022-10-31T15:11:49;20.10;;;5.97;;
72388;SDS011;60566;48.062;9.930;2022-10-31T15:14:20;13.85;;;7.15;;
72388;SDS011;60566;48.062;9.930;2022-10-31T15:16:47;20.00;;;7.38;;
72388;SDS011;60566;48.062;9.930;2022-10-31T15:19:14;16.50;;;7.18;;
72388;SDS011;60566;48.062;9.930;2022-10-31T15:21:43;16.27;;;7.05;;
72388;SDS011;60566;48.062;9.930;2022-10-31T15:24:10;22.95;;;8.60;;
72388;SDS011;60566;48.062;9.930;2022-10-31T15:26:37;19.88;;;7.72;;
72388;SDS011;60566;48.062;9.930;2022-10-31T15:29:05;15.10;;;6.75;;
72388;SDS011;60566;48.062;9.930;2022-10-31T15:31:37;16.38;;;6.78;;
72388;SDS011;60566;48.062;9.930;2022-10-31T15:34:03;19.50;;;7.68;;